Time;durP1;ratioP1;P1;durP2;ratioP2;P2;SDS_P1;SDS_P2;PMS_P1;PMS_P2;Temp;Humidity;BMP_temperature;BMP_pressure;BME280_temperature;BME280_humidity;BME280_pressure;Samples;Min_cycle;Max_cycle;Signal;HPM_P1;HPM_P2
2021/04/13 00:00:28;;;;;;;10.00;7.18;;;;;;;18.57;28.73;98695.44;5065146;28;20330;-96
2021/04/13 00:02:55;;;;;;;10.38;7.32;;;;;;;18.62;28.63;98689.50;5057750;28;20123;-96
2021/04/13 00:05:45;;;;;;;7.03;5.72;;;;;;;18.82;28.59;98703.19;5061031;28;20414;-94
2021/04/13 00:08:18;;;;;;;6.35;4.60;;;;;;;18.91;28.08;98707.25;5060294;28;20067;-95
2021/04/13 00:11:07;;;;;;;9.73;6.50;;;;;;;20.19;26.55;98706.09;5064012;28;20017;-95
2021/04/13 00:13:33;;;;;;;13.25;9.02;;;;;;;19.93;26.44;98696.03;5070833;28;20036;-95
2021/04/13 00:16:07;;;;;;;12.10;6.57;;;;;;;19.56;26.99;98706.59;5067526;28;20031;-94
2021/04/13 00:18:34;;;;;;;7.80;5.35;;;;;;;20.02;26.18;98708.44;5062390;28;20060;-96
2021/04/13 00:21:14;;;;;;;8.90;6.10;;;;;;;18.74;27.71;98705.13;5066042;28;20043;-95
2021/04/13 00:23:41;;;;;;;7.20;5.40;;;;;;;19.24;26.75;98714.69;5066088;28;20031;-94
2021/04/13 00:26:11;;;;;;;6.25;5.05;;;;;;;18.37;27.82;98719.00;5068350;28;20029;-95
2021/04/13 00:28:44;;;;;;;8.70;5.30;;;;;;;20.27;25.87;98702.19;5068472;28;20037;-94
2021/04/13 00:31:19;;;;;;;9.00;5.65;;;;;;;20.10;25.64;98714.03;5079535;28;20036;-94
2021/04/13 00:33:45;;;;;;;7.82;5.72;;;;;;;19.24;27.18;98701.59;5061581;28;20037;-96
2021/04/13 00:36:16;;;;;;;6.47;4.47;;;;;;;20.57;25.58;98711.03;5064624;28;20052;-93
2021/04/13 00:38:48;;;;;;;6.63;5.03;;;;;;;20.20;25.76;98716.88;5058229;28;20089;-94
2021/04/13 00:41:19;;;;;;;9.25;4.97;;;;;;;19.42;26.62;98717.66;5065939;28;20097;-94
2021/04/13 00:43:51;;;;;;;7.68;5.55;;;;;;;19.48;26.11;98725.25;5060588;28;20109;-94
2021/04/13 00:46:27;;;;;;;6.18;4.82;;;;;;;19.97;25.58;98727.53;5069870;28;20044;-94
2021/04/13 00:48:58;;;;;;;6.32;4.88;;;;;;;19.28;26.55;98721.88;5066657;28;20035;-94
2021/04/13 00:51:41;;;;;;;6.43;4.03;;;;;;;19.97;25.73;98733.91;5064978;28;20111;-94
2021/04/13 00:54:19;;;;;;;8.13;5.32;;;;;;;19.97;25.14;98721.97;5070445;28;20028;-96
2021/04/13 00:56:46;;;;;;;6.82;4.28;;;;;;;19.98;25.43;98724.34;5062410;28;20086;-95
2021/04/13 00:59:19;;;;;;;8.38;5.00;;;;;;;20.51;24.91;98730.13;5065449;28;20044;-94
2021/04/13 01:02:03;;;;;;;5.15;3.55;;;;;;;20.14;25.27;98728.81;5063946;28;20047;-95
2021/04/13 01:04:46;;;;;;;5.03;4.53;;;;;;;18.94;26.36;98733.53;5065740;28;20494;-95
2021/04/13 01:07:17;;;;;;;5.05;3.90;;;;;;;20.05;25.17;98737.50;5069227;28;20087;-94
2021/04/13 01:09:49;;;;;;;4.43;3.80;;;;;;;20.63;24.37;98745.75;5070378;28;20032;-96
2021/04/13 01:12:27;;;;;;;8.27;4.38;;;;;;;19.74;25.14;98754.88;5063601;28;20454;-95
2021/04/13 01:14:54;;;;;;;4.80;3.80;;;;;;;19.09;26.26;98746.41;5061473;28;20033;-95
2021/04/13 01:17:23;;;;;;;5.05;4.22;;;;;;;19.29;26.18;98748.56;5065053;28;20028;-94
2021/04/13 01:20:05;;;;;;;4.22;3.70;;;;;;;19.51;25.07;98749.53;5066773;28;20087;-95
2021/04/13 01:22:54;;;;;;;3.90;3.50;;;;;;;19.02;26.39;98754.69;5067481;28;20043;-95
2021/04/13 01:25:25;;;;;;;7.50;4.65;;;;;;;19.05;26.21;98756.69;5058525;28;20045;-95
2021/04/13 01:27:57;;;;;;;5.30;4.45;;;;;;;18.47;27.02;98765.63;5065057;28;20032;-94
2021/04/13 01:30:31;;;;;;;7.75;5.63;;;;;;;18.41;26.91;98772.66;5063157;28;20042;-95
2021/04/13 01:33:23;;;;;;;4.45;3.67;;;;;;;18.04;27.16;98762.69;5068767;28;20029;-95
2021/04/13 01:35:58;;;;;;;4.55;3.78;;;;;;;18.38;26.99;98764.28;5066191;28;20060;-96
2021/04/13 01:38:33;;;;;;;4.75;4.07;;;;;;;19.43;25.44;98772.16;5066089;28;20033;-95
2021/04/13 01:43:40;;;;;;;5.45;4.13;;;;;;;19.61;24.92;98773.06;5060718;28;20037;-95
2021/04/13 01:46:09;;;;;;;7.18;4.25;;;;;;;18.56;26.28;98773.66;5069909;28;20412;-96
2021/04/13 01:48:36;;;;;;;5.63;4.05;;;;;;;19.72;25.38;98777.53;5066317;28;20029;-95
2021/04/13 01:51:05;;;;;;;4.53;3.60;;;;;;;20.16;24.47;98780.19;5065402;28;20239;-95
2021/04/13 01:53:40;;;;;;;7.78;5.75;;;;;;;20.50;23.81;98777.97;5063241;28;20074;-95
2021/04/13 01:56:12;;;;;;;4.80;3.47;;;;;;;21.06;23.07;98775.34;5057973;28;20396;-95
2021/04/13 01:59:09;;;;;;;5.05;3.92;;;;;;;19.64;24.49;98778.69;5067220;28;20071;-95
2021/04/13 02:01:40;;;;;;;6.00;3.95;;;;;;;20.79;23.42;98798.41;5059536;28;20053;-95
2021/04/13 02:04:14;;;;;;;5.70;3.55;;;;;;;21.03;22.75;98792.84;5069018;28;20033;-96
2021/04/13 02:07:23;;;;;;;3.17;2.88;;;;;;;21.48;22.12;98784.94;5070334;28;20025;-95
2021/04/13 02:09:54;;;;;;;3.78;3.17;;;;;;;21.74;21.52;98784.53;5062876;28;20028;-95
2021/04/13 02:12:27;;;;;;;4.20;3.45;;;;;;;20.97;22.35;98802.81;5069674;28;20060;-94
2021/04/13 02:15:11;;;;;;;5.82;3.50;;;;;;;21.00;21.99;98793.66;5071974;28;20037;-94
2021/04/13 02:17:46;;;;;;;2.78;2.53;;;;;;;20.67;22.64;98792.00;5062140;28;20036;-94
2021/04/13 02:20:15;;;;;;;3.63;2.55;;;;;;;20.84;22.29;98803.59;5065010;28;20476;-94
2021/04/13 02:22:47;;;;;;;3.72;2.40;;;;;;;20.38;23.06;98801.44;5072464;28;20170;-92
2021/04/13 02:25:22;;;;;;;3.58;2.58;;;;;;;20.53;22.60;98808.69;5064229;28;20079;-92
2021/04/13 02:27:49;;;;;;;3.22;2.45;;;;;;;20.64;22.65;98809.50;5068914;28;20029;-93
2021/04/13 02:30:26;;;;;;;4.35;2.30;;;;;;;20.78;22.27;98797.59;5068564;28;20033;-92
2021/04/13 02:32:53;;;;;;;3.47;2.47;;;;;;;20.19;23.14;98812.84;5069863;28;20052;-92
2021/04/13 02:35:22;;;;;;;3.42;2.20;;;;;;;19.84;23.42;98810.66;5070665;28;20039;-92
2021/04/13 02:37:52;;;;;;;4.03;2.47;;;;;;;19.60;23.52;98814.06;5073980;28;20033;-92
2021/04/13 02:40:25;;;;;;;3.28;2.58;;;;;;;18.86;24.72;98815.31;5070185;28;20027;-93
2021/04/13 02:42:56;;;;;;;4.25;2.83;;;;;;;18.59;25.25;98806.28;5067888;28;20170;-93
2021/04/13 02:45:40;;;;;;;2.97;2.45;;;;;;;18.92;24.67;98808.25;5069812;28;20033;-93
2021/04/13 02:48:12;;;;;;;3.42;2.40;;;;;;;18.84;24.97;98803.78;5072419;28;20051;-94
2021/04/13 02:50:43;;;;;;;5.00;2.72;;;;;;;19.24;24.29;98804.59;5070484;28;20028;-92
2021/04/13 02:53:09;;;;;;;;;;;;;;;20.26;23.47;98806.53;5073945;28;20385;-92
2021/04/13 02:55:49;;;;;;;4.28;2.55;;;;;;;19.91;23.31;98801.53;5069867;28;19913;-93
2021/04/13 02:58:18;;;;;;;3.45;2.58;;;;;;;20.49;22.66;98798.69;5070157;28;20033;-92
2021/04/13 03:00:48;;;;;;;4.25;3.55;;;;;;;19.58;23.92;98802.50;5066710;28;20025;-93
2021/04/13 03:03:29;;;;;;;3.10;2.47;;;;;;;20.55;22.63;98802.69;5084225;28;20024;-92
2021/04/13 03:05:56;;;;;;;3.50;2.75;;;;;;;20.02;23.29;98813.56;5061845;28;20044;-93
2021/04/13 03:08:23;;;;;;;3.75;1.98;;;;;;;20.05;23.31;98809.97;5063675;28;20119;-92
2021/04/13 03:11:06;;;;;;;3.75;2.72;;;;;;;20.33;22.89;98810.16;5068465;28;20044;-92
2021/04/13 03:13:36;;;;;;;4.57;3.08;;;;;;;19.94;23.27;98803.56;5069442;28;20064;-92
2021/04/13 03:16:04;;;;;;;3.22;2.65;;;;;;;18.55;25.19;98806.22;5065494;28;20119;-93
2021/04/13 03:18:42;;;;;;;2.55;2.17;;;;;;;19.10;24.60;98812.00;5067081;28;20482;-93
2021/04/13 03:21:30;;;;;;;2.83;2.55;;;;;;;18.62;25.12;98811.09;5056755;28;20424;-92
2021/04/13 03:24:00;;;;;;;3.20;2.10;;;;;;;19.85;23.97;98820.63;5065839;28;20090;-92
2021/04/13 03:26:39;;;;;;;2.78;2.25;;;;;;;19.74;23.46;98821.75;5068760;28;20035;-94
2021/04/13 03:29:15;;;;;;;2.40;1.90;;;;;;;19.76;23.68;98825.75;5069382;28;20039;-92
2021/04/13 03:31:42;;;;;;;5.13;3.22;;;;;;;20.49;22.85;98830.16;5065616;28;20523;-92
2021/04/13 03:34:08;;;;;;;3.25;2.60;;;;;;;19.71;23.78;98828.06;5068745;28;20055;-92
2021/04/13 03:36:36;;;;;;;3.70;2.63;;;;;;;19.85;24.03;98830.97;5066226;28;20029;-94
2021/04/13 03:39:32;;;;;;;3.55;2.72;;;;;;;19.92;23.58;98833.81;5066421;28;20120;-93
2021/04/13 03:41:59;;;;;;;4.50;2.33;;;;;;;20.19;23.14;98832.38;5064335;28;20435;-93
2021/04/13 03:44:26;;;;;;;3.05;2.63;;;;;;;20.51;22.77;98838.16;5067605;28;20032;-93
2021/04/13 03:46:53;;;;;;;3.45;2.30;;;;;;;21.32;21.54;98841.22;5067816;28;20044;-94
2021/04/13 03:49:29;;;;;;;2.20;2.00;;;;;;;20.48;22.80;98836.16;5070952;28;20029;-93
2021/04/13 03:52:17;;;;;;;2.63;2.08;;;;;;;20.19;23.01;98843.53;5067816;28;20135;-93
2021/04/13 03:54:43;;;;;;;2.85;2.22;;;;;;;19.01;23.98;98831.00;5058863;28;20059;-93
2021/04/13 03:57:09;;;;;;;3.38;3.05;;;;;;;19.59;24.09;98842.31;5056360;28;20040;-94
2021/04/13 03:59:56;;;;;;;2.60;2.40;;;;;;;20.43;22.77;98853.25;5060203;28;20029;-93
2021/04/13 04:02:22;;;;;;;4.25;2.78;;;;;;;20.39;22.97;98847.66;5065026;28;20070;-93
2021/04/13 04:05:01;;;;;;;4.40;3.30;;;;;;;20.24;23.07;98842.38;5066137;28;20033;-93
2021/04/13 04:07:39;;;;;;;2.67;2.20;;;;;;;21.61;21.33;98856.00;5070604;28;20027;-93
2021/04/13 04:10:31;;;;;;;9.65;4.65;;;;;;;21.12;21.83;98851.94;5062492;28;20420;-93
2021/04/13 04:13:07;;;;;;;5.50;3.55;;;;;;;20.95;21.86;98858.25;5062840;28;20044;-93
2021/04/13 04:15:42;;;;;;;3.40;2.63;;;;;;;21.20;21.82;98863.94;5070324;28;20081;-93
2021/04/13 04:18:47;;;;;;;3.28;2.55;;;;;;;20.75;22.32;98859.00;5068887;28;20028;-94
2021/04/13 04:21:34;;;;;;;7.93;4.90;;;;;;;19.51;23.83;98866.50;5065577;28;20029;-93
2021/04/13 04:24:09;;;;;;;3.83;2.42;;;;;;;19.05;24.20;98884.69;5059060;28;20025;-94
2021/04/13 04:26:54;;;;;;;3.85;2.97;;;;;;;18.11;25.55;98880.25;5067225;28;20100;-95
2021/04/13 04:29:29;;;;;;;3.42;2.53;;;;;;;18.14;25.72;98889.84;5065490;28;20044;-94
2021/04/13 04:32:10;;;;;;;3.53;2.47;;;;;;;18.21;25.86;98890.75;5069379;28;20024;-94
2021/04/13 04:34:40;;;;;;;3.13;2.67;;;;;;;19.23;24.42;98888.47;5068641;28;20037;-94
2021/04/13 04:37:27;;;;;;;2.63;2.27;;;;;;;18.96;24.82;98885.00;5059887;28;20029;-93
2021/04/13 04:40:16;;;;;;;4.20;2.40;;;;;;;18.55;25.23;98900.78;5058105;28;20521;-94
2021/04/13 04:42:58;;;;;;;3.08;2.28;;;;;;;18.53;25.11;98894.00;5065869;28;20078;-94
2021/04/13 04:45:35;;;;;;;6.97;3.22;;;;;;;18.88;24.39;98890.88;5069148;28;20119;-95
2021/04/13 04:48:18;;;;;;;4.85;2.83;;;;;;;20.01;23.40;98898.38;5064272;28;20035;-94
2021/04/13 04:50:46;;;;;;;3.47;3.08;;;;;;;20.16;22.68;98905.66;5073723;28;20029;-95
2021/04/13 04:53:13;;;;;;;4.63;3.47;;;;;;;20.26;23.15;98907.72;5073886;28;20033;-95
2021/04/13 04:55:39;;;;;;;3.42;2.67;;;;;;;20.62;22.71;98911.53;5079426;28;20078;-96
2021/04/13 04:58:05;;;;;;;3.70;3.20;;;;;;;20.77;22.41;98913.19;5067822;28;20037;-95
2021/04/13 05:00:31;;;;;;;3.30;2.78;;;;;;;21.11;22.04;98911.78;5070465;28;20084;-95
2021/04/13 05:02:57;;;;;;;3.92;2.40;;;;;;;20.38;22.84;98910.19;5074843;28;20504;-94
2021/04/13 05:05:23;;;;;;;3.80;2.70;;;;;;;20.38;22.79;98912.19;5070096;28;20040;-96
2021/04/13 05:07:50;;;;;;;4.78;2.97;;;;;;;19.95;22.92;98913.88;5068700;28;20036;-96
2021/04/13 05:10:16;;;;;;;2.70;2.10;;;;;;;19.54;23.89;98932.59;5070702;28;20033;-96
2021/04/13 05:12:43;;;;;;;3.35;2.55;;;;;;;19.40;24.48;98928.84;5069920;28;20133;-95
2021/04/13 05:15:11;;;;;;;4.00;2.92;;;;;;;19.55;24.09;98927.81;5069414;28;20033;-96
2021/04/13 05:17:37;;;;;;;2.95;2.65;;;;;;;19.89;23.57;98924.56;5070456;28;20028;-96
2021/04/13 05:20:04;;;;;;;6.38;4.53;;;;;;;20.15;23.29;98931.13;5071484;28;20059;-96
2021/04/13 05:22:31;;;;;;;3.65;3.22;;;;;;;20.88;22.48;98925.22;5065269;28;20028;-93
2021/04/13 05:24:57;;;;;;;5.18;3.50;;;;;;;21.06;22.20;98931.72;5069741;28;20036;-93
2021/04/13 05:27:23;;;;;;;3.75;2.85;;;;;;;20.94;22.14;98929.22;5060867;28;20044;-91
2021/04/13 05:29:49;;;;;;;6.72;4.47;;;;;;;21.13;21.86;98920.56;5059599;28;20047;-91
2021/04/13 05:32:15;;;;;;;2.53;2.13;;;;;;;20.63;22.22;98913.94;5060767;28;20045;-94
2021/04/13 05:34:41;;;;;;;6.55;4.00;;;;;;;20.17;23.07;98921.19;5073517;28;20028;-95
2021/04/13 05:37:09;;;;;;;4.40;3.58;;;;;;;20.20;22.57;98931.56;5069471;28;20044;-95
2021/04/13 05:39:35;;;;;;;4.40;2.75;;;;;;;20.07;23.17;98923.91;5070753;28;20493;-91
2021/04/13 05:42:02;;;;;;;3.75;2.85;;;;;;;20.58;22.58;98925.44;5064291;28;20516;-92
2021/04/13 05:44:28;;;;;;;2.35;2.15;;;;;;;20.45;22.73;98929.78;5071814;28;20029;-91
2021/04/13 05:46:54;;;;;;;3.75;2.72;;;;;;;20.46;22.79;98931.38;5066011;28;20032;-91
2021/04/13 05:49:21;;;;;;;2.75;2.08;;;;;;;20.78;22.41;98942.72;5074425;28;20032;-91
2021/04/13 05:51:47;;;;;;;4.15;2.97;;;;;;;21.05;22.11;98946.06;5069821;28;20028;-92
2021/04/13 05:54:13;;;;;;;3.15;2.45;;;;;;;21.25;21.79;98944.53;5072647;28;20021;-91
2021/04/13 05:56:42;;;;;;;3.63;3.00;;;;;;;21.58;21.48;98955.41;5067646;28;20029;-88
2021/04/13 05:59:13;;;;;;;4.18;3.20;;;;;;;21.65;21.27;98958.22;5059486;28;20095;-87
2021/04/13 06:01:40;;;;;;;3.33;2.17;;;;;;;21.11;21.71;98945.28;5061235;28;20109;-88
2021/04/13 06:04:10;;;;;;;4.03;3.55;;;;;;;20.88;22.41;98952.34;5061747;28;20025;-89
2021/04/13 06:06:36;;;;;;;2.90;2.38;;;;;;;20.85;22.59;98953.09;5060705;28;20029;-91
2021/04/13 06:09:03;;;;;;;4.03;2.92;;;;;;;21.03;22.26;98960.38;5059228;28;20489;-89
2021/04/13 06:11:31;;;;;;;4.78;3.13;;;;;;;21.53;21.70;98955.78;5065406;28;20041;-90
2021/04/13 06:13:59;;;;;;;4.88;2.85;;;;;;;21.37;21.76;98960.13;5065487;28;20033;-90
2021/04/13 06:16:33;;;;;;;3.40;2.97;;;;;;;21.83;21.38;98966.63;5061473;28;20143;-92
2021/04/13 06:18:59;;;;;;;3.75;2.40;;;;;;;21.93;21.27;98969.47;5059872;28;20029;-91
2021/04/13 06:21:26;;;;;;;6.70;4.25;;;;;;;21.82;21.25;98971.41;5065479;28;20150;-92
2021/04/13 06:23:52;;;;;;;3.72;2.80;;;;;;;21.82;21.23;98976.22;5066321;28;20116;-91
2021/04/13 06:26:18;;;;;;;3.08;2.63;;;;;;;21.93;21.13;98980.66;5062632;28;20035;-92
2021/04/13 06:28:44;;;;;;;4.63;3.00;;;;;;;21.74;21.19;98986.56;5064021;28;20104;-93
2021/04/13 06:31:10;;;;;;;2.50;2.30;;;;;;;20.85;22.33;98981.81;5072014;28;20094;-93
2021/04/13 06:33:36;;;;;;;3.13;2.47;;;;;;;21.02;22.43;98992.28;5059439;28;20036;-93
2021/04/13 06:36:04;;;;;;;3.35;2.38;;;;;;;21.65;21.52;98990.94;5066724;28;20024;-93
2021/04/13 06:38:31;;;;;;;3.40;2.22;;;;;;;21.66;21.42;98986.94;5065160;28;20443;-93
2021/04/13 06:41:00;;;;;;;3.65;2.30;;;;;;;21.79;21.38;98991.78;5063589;28;20043;-93
2021/04/13 06:43:29;;;;;;;3.72;2.40;;;;;;;21.65;21.49;98999.34;5066613;28;20029;-93
2021/04/13 06:46:40;;;;;;;2.78;2.17;;;;;;;21.69;21.44;98986.16;5069513;28;20040;-93
2021/04/13 06:49:25;;;;;;;2.45;2.20;;;;;;;21.66;21.30;98987.75;5066543;28;20434;-93
2021/04/13 06:52:13;;;;;;;3.03;1.98;;;;;;;21.02;21.86;98995.09;5062878;28;20043;-93
2021/04/13 06:54:45;;;;;;;4.45;2.95;;;;;;;21.76;21.39;98992.56;5072325;28;20569;-93
2021/04/13 06:57:33;;;;;;;4.00;2.40;;;;;;;22.07;21.03;98996.66;5070048;28;20027;-93
2021/04/13 07:00:07;;;;;;;4.43;2.67;;;;;;;22.24;20.81;99000.66;5067130;28;20489;-93
2021/04/13 07:02:50;;;;;;;3.28;2.65;;;;;;;22.50;20.56;99001.03;5067841;28;20792;-93
2021/04/13 07:05:33;;;;;;;4.63;2.40;;;;;;;22.83;19.86;98993.41;5067530;28;20032;-94
2021/04/13 07:08:21;;;;;;;4.45;2.55;;;;;;;23.02;19.85;98995.75;5075360;28;20029;-93
2021/04/13 07:10:54;;;;;;;2.67;2.22;;;;;;;22.87;19.90;98997.78;5073009;28;20025;-94
2021/04/13 07:13:29;;;;;;;4.70;2.97;;;;;;;22.75;20.05;98992.63;5072611;28;20028;-93
2021/04/13 07:16:05;;;;;;;3.95;2.70;;;;;;;22.42;20.76;99001.44;5060704;28;20052;-94
2021/04/13 07:18:34;;;;;;;2.58;2.20;;;;;;;21.35;21.82;99000.44;5069733;28;20033;-94
2021/04/13 07:21:08;;;;;;;5.88;3.75;;;;;;;21.89;21.51;99005.00;5068803;28;20123;-94
2021/04/13 07:23:44;;;;;;;6.20;4.20;;;;;;;22.02;21.16;99005.41;5064685;28;20099;-94
2021/04/13 07:26:31;;;;;;;7.50;4.55;;;;;;;22.44;20.67;99002.63;5066435;28;20102;-93
2021/04/13 07:29:17;;;;;;;5.93;3.38;;;;;;;22.67;20.59;99003.03;5068296;28;20077;-94
2021/04/13 07:31:53;;;;;;;3.80;2.50;;;;;;;22.42;20.76;99009.84;5071958;28;20032;-94
2021/04/13 07:34:21;;;;;;;4.07;2.85;;;;;;;22.15;21.13;98997.44;5069524;28;20028;-93
2021/04/13 07:37:23;;;;;;;4.55;3.15;;;;;;;21.90;20.99;99008.59;5071604;28;20035;-94
2021/04/13 07:39:53;;;;;;;4.25;2.78;;;;;;;22.01;21.20;99012.19;5054903;28;20056;-93
2021/04/13 07:42:35;;;;;;;4.73;2.93;;;;;;;22.13;21.53;99011.81;5064470;28;20032;-94
2021/04/13 07:45:04;;;;;;;4.65;3.17;;;;;;;21.81;21.44;99011.75;5067754;28;20282;-94
2021/04/13 07:47:39;;;;;;;5.05;3.22;;;;;;;22.28;21.09;99004.25;5063609;28;20024;-94
2021/04/13 07:50:05;;;;;;;7.78;3.75;;;;;;;22.79;20.54;99004.63;5064336;28;20025;-94
2021/04/13 07:52:51;;;;;;;10.25;4.32;;;;;;;23.00;20.49;99000.97;5061525;28;20028;-94
2021/04/13 07:55:49;;;;;;;2.95;1.98;;;;;;;22.88;20.27;99009.78;5067211;28;20029;-93
2021/04/13 07:58:37;;;;;;;2.13;1.92;;;;;;;20.42;22.30;99010.66;5059618;28;20506;-93
2021/04/13 08:01:07;;;;;;;4.10;3.10;;;;;;;18.15;25.51;99017.31;5068092;28;20107;-94
2021/04/13 08:03:35;;;;;;;4.35;2.08;;;;;;;18.85;24.18;99016.84;5071485;28;20094;-94
2021/04/13 08:06:04;;;;;;;4.38;2.50;;;;;;;17.78;26.20;99016.28;5064685;28;20392;-92
2021/04/13 08:08:39;;;;;;;3.00;1.77;;;;;;;17.46;26.72;99026.72;5066436;28;20037;-94
2021/04/13 08:11:14;;;;;;;1.63;1.30;;;;;;;16.53;28.34;99016.78;5063254;28;20404;-93
2021/04/13 08:13:45;;;;;;;2.90;1.65;;;;;;;17.50;27.24;99018.47;5060407;28;20112;-96
2021/04/13 08:16:31;;;;;;;1.58;1.27;;;;;;;18.52;25.88;99018.34;5080367;28;20439;-96
2021/04/13 08:19:26;;;;;;;2.10;1.30;;;;;;;17.91;26.56;99020.47;5090716;28;20036;-96
2021/04/13 08:22:07;;;;;;;0.90;0.90;;;;;;;18.61;25.94;99009.72;5097701;28;20048;-96
2021/04/13 08:24:44;;;;;;;1.75;1.10;;;;;;;18.88;24.76;99005.75;5091932;28;20108;-96
2021/04/13 08:27:28;;;;;;;1.58;1.42;;;;;;;17.13;27.76;99018.09;5091504;28;20037;-96
2021/04/13 08:29:54;;;;;;;1.38;1.00;;;;;;;17.92;26.10;99014.53;5088784;28;20033;-96
2021/04/13 08:32:56;;;;;;;1.65;1.20;;;;;;;20.12;23.81;99012.75;5081494;28;20077;-96
2021/04/13 08:35:38;;;;;;;0.80;0.80;;;;;;;19.73;24.09;99009.59;5075160;28;20028;-96
2021/04/13 08:38:20;;;;;;;2.10;1.90;;;;;;;17.41;27.12;99012.34;5046059;28;20039;-96
2021/04/13 08:41:11;;;;;;;1.63;1.52;;;;;;;17.98;27.02;99020.59;5071217;28;20059;-95
2021/04/13 08:43:59;;;;;;;1.92;1.25;;;;;;;19.57;24.63;99007.03;5067149;28;20029;-96
2021/04/13 08:46:41;;;;;;;1.35;1.20;;;;;;;19.93;23.78;99005.41;5068493;28;20511;-95
2021/04/13 08:49:25;;;;;;;2.90;1.75;;;;;;;21.30;22.51;99002.81;5060883;28;20028;-94
2021/04/13 08:52:28;;;;;;;4.07;2.13;;;;;;;22.60;21.45;98994.66;5063522;28;20041;-95
2021/04/13 08:55:18;;;;;;;1.27;1.05;;;;;;;22.44;21.41;98999.84;5064420;28;20032;-95
2021/04/13 08:58:17;;;;;;;2.53;1.17;;;;;;;23.20;20.71;98996.47;5066068;28;20041;-94
2021/04/13 09:00:51;;;;;;;2.03;1.70;;;;;;;23.73;19.88;98985.84;5064705;28;20033;-94
2021/04/13 09:03:20;;;;;;;3.05;1.98;;;;;;;23.48;20.33;98990.00;5059484;28;20500;-96
2021/04/13 09:06:03;;;;;;;3.05;1.48;;;;;;;23.87;19.77;98993.38;5065828;28;20033;-95
2021/04/13 09:08:41;;;;;;;2.67;2.28;;;;;;;23.74;19.98;98984.63;5067374;28;20431;-95
2021/04/13 09:11:18;;;;;;;2.75;1.83;;;;;;;24.00;19.98;98981.25;5058923;28;20053;-96
2021/04/13 09:14:03;;;;;;;4.18;3.00;;;;;;;23.76;19.64;98982.22;5068498;28;20067;-96
2021/04/13 09:16:33;;;;;;;2.65;1.77;;;;;;;23.21;20.22;98990.50;5064773;28;20028;-95
2021/04/13 09:19:05;;;;;;;1.67;1.57;;;;;;;22.90;20.61;98980.19;5068877;28;20499;-95
2021/04/13 09:21:44;;;;;;;2.28;1.73;;;;;;;21.93;21.49;98999.41;5059742;28;20314;-95
2021/04/13 09:24:16;;;;;;;2.40;2.03;;;;;;;21.89;21.69;98990.25;5060664;28;20029;-94
2021/04/13 09:26:57;;;;;;;2.72;1.70;;;;;;;22.63;21.30;98985.47;5057698;28;20071;-92
2021/04/13 09:29:41;;;;;;;;;;;;;;;22.71;21.24;98982.66;5068886;28;20124;-93
2021/04/13 09:32:26;;;;;;;1.60;1.38;;;;;;;22.82;21.25;98975.81;5066552;28;20003;-95
2021/04/13 09:35:30;;;;;;;5.30;2.85;;;;;;;22.39;21.29;98979.84;5067711;28;20448;-95
2021/04/13 09:38:14;;;;;;;2.28;1.73;;;;;;;21.63;21.97;98979.38;5064026;28;20107;-92
2021/04/13 09:41:01;;;;;;;1.40;1.30;;;;;;;22.15;21.64;98975.84;5066052;28;20040;-96
2021/04/13 09:43:40;;;;;;;4.78;2.10;;;;;;;22.20;21.11;98977.44;5067971;28;20033;-95
2021/04/13 09:46:45;;;;;;;5.43;2.55;;;;;;;19.43;25.04;98975.44;5043201;28;20495;-95
2021/04/13 09:49:41;;;;;;;3.75;2.75;;;;;;;21.06;23.15;98970.78;5062463;28;20100;-96
2021/04/13 09:52:28;;;;;;;2.40;1.88;;;;;;;20.37;23.53;98977.53;5049233;28;20147;-95
2021/04/13 09:55:18;;;;;;;2.17;1.38;;;;;;;19.36;25.73;98973.38;5068591;28;20381;-95
2021/04/13 09:57:57;;;;;;;7.72;3.63;;;;;;;20.37;24.55;98972.78;5076443;28;20119;-96
2021/04/13 10:00:29;;;;;;;3.05;2.10;;;;;;;21.30;23.67;98966.50;5076275;28;20045;-96
2021/04/13 10:03:14;;;;;;;4.38;2.60;;;;;;;22.35;21.97;98965.06;5064388;28;20040;-96
2021/04/13 10:05:46;;;;;;;3.45;2.45;;;;;;;22.07;21.88;98967.88;5060559;28;20029;-96
2021/04/13 10:08:15;;;;;;;3.83;2.10;;;;;;;21.75;22.35;98974.19;5066283;28;20048;-94
2021/04/13 10:10:49;;;;;;;4.25;3.25;;;;;;;21.22;22.99;98962.88;5063473;28;20037;-96
2021/04/13 10:13:30;;;;;;;3.53;2.30;;;;;;;20.46;23.94;98958.47;5067541;28;20032;-94
2021/04/13 10:16:18;;;;;;;3.75;2.55;;;;;;;21.55;22.15;98959.00;5066747;28;20025;-95
2021/04/13 10:19:00;;;;;;;2.83;1.90;;;;;;;21.31;22.51;98966.09;5062625;28;20123;-85
2021/04/13 10:22:07;;;;;;;4.03;2.55;;;;;;;20.62;23.25;98950.59;5064165;28;20103;-92
2021/04/13 10:25:00;;;;;;;1.27;1.17;;;;;;;20.50;23.34;98951.72;5068125;28;20035;-95
2021/04/13 10:27:36;;;;;;;2.40;2.05;;;;;;;19.02;24.71;98949.50;5065419;28;20032;-94
2021/04/13 10:30:24;;;;;;;3.20;1.73;;;;;;;19.13;25.55;98950.41;5060409;28;20032;-93
2021/04/13 10:32:50;;;;;;;7.53;2.92;;;;;;;21.15;23.13;98957.28;5072560;28;20040;-91
2021/04/13 10:35:31;;;;;;;4.55;2.45;;;;;;;21.14;22.94;98952.09;5061094;28;20033;-89
2021/04/13 10:38:18;;;;;;;;;;;;;;;22.07;22.08;98948.28;5066077;28;20268;-92
2021/04/13 10:41:05;;;;;;;3.22;1.88;;;;;;;21.29;22.68;98950.94;5061720;28;19924;-91
2021/04/13 10:43:47;;;;;;;3.63;3.03;;;;;;;20.91;23.15;98938.38;5079552;28;20032;-90
2021/04/13 10:46:30;;;;;;;3.33;2.05;;;;;;;20.75;23.00;98937.13;5061876;28;20037;-90
2021/04/13 10:49:33;;;;;;;3.80;1.73;;;;;;;17.88;27.20;98949.78;5064956;28;20572;-91
2021/04/13 10:52:05;;;;;;;2.35;2.08;;;;;;;19.43;25.68;98940.03;5061877;28;20036;-90
2021/04/13 10:55:02;;;;;;;1.95;1.60;;;;;;;20.63;24.29;98932.69;5059655;28;20036;-92
2021/04/13 10:57:37;;;;;;;1.58;1.48;;;;;;;21.36;22.87;98931.41;5066902;28;20039;-92
2021/04/13 11:00:41;;;;;;;1.55;1.40;;;;;;;21.88;22.30;98927.13;5060733;28;20086;-91
2021/04/13 11:03:25;;;;;;;1.55;1.45;;;;;;;20.06;24.27;98930.66;5081035;28;20040;-92
2021/04/13 11:06:09;;;;;;;1.90;1.38;;;;;;;21.53;22.78;98932.63;5063444;28;20039;-92
2021/04/13 11:09:06;;;;;;;3.70;2.70;;;;;;;21.99;22.33;98934.31;5069082;28;20119;-94
2021/04/13 11:12:10;;;;;;;2.63;1.92;;;;;;;20.21;23.82;98921.22;5063602;28;20075;-94
2021/04/13 11:15:07;;;;;;;1.65;1.20;;;;;;;21.60;22.38;98916.69;5069659;28;20068;-94
2021/04/13 11:17:57;;;;;;;2.08;1.83;;;;;;;19.65;24.17;98916.00;5067421;28;20028;-95
2021/04/13 11:20:30;;;;;;;3.97;2.27;;;;;;;16.56;28.86;98928.19;5079835;28;20400;-95
2021/04/13 11:23:20;;;;;;;2.38;1.30;;;;;;;16.89;30.27;98933.22;5069962;28;20127;-93
2021/04/13 11:26:38;;;;;;;2.88;1.98;;;;;;;19.09;25.95;98924.53;5063325;28;20389;-93
2021/04/13 11:29:31;;;;;;;1.75;1.60;;;;;;;20.26;24.12;98906.91;5051187;28;20056;-93
2021/04/13 11:32:31;;;;;;;1.73;1.20;;;;;;;21.68;22.69;98909.13;5067496;28;20032;-94
2021/04/13 11:35:10;;;;;;;1.33;1.23;;;;;;;21.96;22.10;98903.56;5066895;28;20032;-94
2021/04/13 11:38:14;;;;;;;1.35;1.08;;;;;;;19.87;24.51;98901.84;5066748;28;20033;-92
2021/04/13 11:41:18;;;;;;;3.22;1.75;;;;;;;17.85;27.62;98906.06;5070854;28;20064;-93
2021/04/13 11:44:09;;;;;;;4.05;2.05;;;;;;;17.11;29.07;98915.81;5071666;28;20155;-96
2021/04/13 11:46:49;;;;;;;2.25;1.45;;;;;;;17.94;28.11;98903.84;5077769;28;20032;-94
2021/04/13 11:49:37;;;;;;;1.13;1.08;;;;;;;18.93;26.97;98898.88;5067539;28;20021;-94
2021/04/13 11:52:22;;;;;;;2.42;1.00;;;;;;;19.74;25.06;98894.19;5066541;28;20090;-93
2021/04/13 11:54:55;;;;;;;2.10;1.23;;;;;;;19.03;25.40;98896.22;5064330;28;20040;-94
2021/04/13 11:57:49;;;;;;;1.55;0.90;;;;;;;20.99;23.49;98897.34;5053077;28;20123;-93
2021/04/13 12:00:19;;;;;;;2.08;1.67;;;;;;;17.87;27.37;98894.59;5064488;28;20044;-95
2021/04/13 12:03:21;;;;;;;1.83;0.80;;;;;;;20.69;23.90;98889.25;5065349;28;20481;-95
2021/04/13 12:05:54;;;;;;;3.25;1.10;;;;;;;20.70;24.11;98879.66;5060557;28;20477;-94
2021/04/13 12:08:29;;;;;;;1.98;1.30;;;;;;;21.22;22.70;98884.69;5060504;28;20036;-95
2021/04/13 12:11:41;;;;;;;1.40;0.90;;;;;;;22.02;22.34;98882.38;5063978;28;20048;-93
2021/04/13 12:14:38;;;;;;;0.85;0.80;;;;;;;22.79;20.98;98873.03;5058845;28;20389;-95
2021/04/13 12:17:09;;;;;;;4.18;0.80;;;;;;;21.91;22.17;98870.41;5063860;28;20025;-92
2021/04/13 12:19:35;;;;;;;1.15;0.98;;;;;;;21.64;22.47;98872.75;5067054;28;20492;-93
2021/04/13 12:22:22;;;;;;;1.40;0.93;;;;;;;21.83;21.80;98865.97;5059125;28;20489;-93
2021/04/13 12:24:50;;;;;;;1.08;0.75;;;;;;;21.35;22.96;98854.38;5063411;28;20063;-92